Kralendijk, Netherlands Antilles
Current Conditions -  °F | °C
As of 10:00 AM on Saturday 22 Nov 2014 (Local Time) from TNCC Reporting Station
Scattered Clouds Scattered Clouds  
Wind Chill: 30°   Ceiling: Unl
Heat Index: 36°   Visibility: 6mi
Dew Point: 25°   Wind: 9mph
Humidity: 74%   Direction: 100°E
Pressure: 29.94"   Gusts: NA
Location:  12.15°N, 68.28°W
Report Text: TNCC 221400Z 10008KT 9999 SCT020 30/25 Q1014 NOSIG
Loading
Personal Weather Stations






























Interactive Weather Map New forecast layout! Learn more

10-Day Weather Forecast

Advertisements
Track Severe Weather on mobile